createdAt,value
2023-04-03T00:02:00.103Z,103063.16
2023-04-03T00:06:53.948Z,103064.78
2023-04-03T00:11:47.773Z,103058.66
2023-04-03T00:16:38.427Z,103064.34
2023-04-03T00:21:28.913Z,103066.00
2023-04-03T00:26:19.815Z,103078.88
2023-04-03T00:31:12.766Z,103075.34
2023-04-03T00:36:03.713Z,103079.44
2023-04-03T00:40:54.557Z,103082.66
2023-04-03T00:45:47.101Z,103086.72
2023-04-03T00:50:42.804Z,103090.81
2023-04-03T00:55:34.268Z,103089.75
2023-04-03T01:00:28.007Z,103083.28
2023-04-03T01:05:20.920Z,103075.53
2023-04-03T01:10:17.578Z,103086.41
2023-04-03T01:15:12.176Z,103089.69
2023-04-03T01:20:19.731Z,103093.09
2023-04-03T01:25:10.701Z,103100.97
2023-04-03T01:30:04.967Z,103102.59
2023-04-03T01:34:58.709Z,103102.59
2023-04-03T01:39:50.844Z,103109.09
2023-04-03T01:44:41.771Z,103106.66
2023-04-03T01:49:32.832Z,103103.06
2023-04-03T01:54:28.723Z,103103.06
2023-04-03T01:59:20.840Z,103103.75
2023-04-03T02:04:12.009Z,103100.47
2023-04-03T02:09:03.005Z,103103.50
2023-04-03T02:13:57.371Z,103110.25
2023-04-03T02:18:48.633Z,103106.47
2023-04-03T02:23:43.297Z,103110.56
2023-04-03T02:28:34.200Z,103112.50
2023-04-03T02:33:29.595Z,103125.91
2023-04-03T02:38:22.672Z,103121.47
2023-04-03T02:43:13.700Z,103129.03
2023-04-03T02:48:16.736Z,103125.16
2023-04-03T02:53:10.764Z,103124.22
2023-04-03T02:58:04.014Z,103123.16
2023-04-03T03:02:56.037Z,103119.19
2023-04-03T03:07:49.874Z,103123.13
2023-04-03T03:12:43.449Z,103122.75
2023-04-03T03:17:33.935Z,103125.94
2023-04-03T03:22:24.719Z,103131.72
2023-04-03T03:27:17.900Z,103120.47
2023-04-03T03:32:12.205Z,103134.56
2023-04-03T03:37:02.745Z,103133.59
2023-04-03T03:41:55.173Z,103138.09
2023-04-03T03:46:46.522Z,103146.09
2023-04-03T03:51:41.876Z,103151.22
2023-04-03T03:56:32.820Z,103155.03
2023-04-03T04:01:23.958Z,103150.41
2023-04-03T04:06:15.911Z,103150.59
2023-04-03T04:11:09.799Z,103153.63
2023-04-03T04:16:01.288Z,103159.72
2023-04-03T04:20:53.642Z,103161.34
2023-04-03T04:25:48.176Z,103153.34
2023-04-03T04:35:34.635Z,103155.72
2023-04-03T04:40:27.338Z,103154.84
2023-04-03T04:45:19.154Z,103162.53
2023-04-03T04:50:15.201Z,103166.72
2023-04-03T04:55:07.648Z,103167.69
2023-04-03T04:59:58.803Z,103183.38
2023-04-03T05:04:51.878Z,103174.66
2023-04-03T05:09:49.839Z,103184.78
2023-04-03T05:14:46.045Z,103178.28
2023-04-03T05:19:36.668Z,103187.81
2023-04-03T05:24:29.352Z,103199.97
2023-04-03T05:29:22.349Z,103204.91
2023-04-03T05:34:14.111Z,103195.94
2023-04-03T05:39:05.458Z,103198.94
2023-04-03T05:43:57.936Z,103205.28
2023-04-03T05:48:52.736Z,103210.91
2023-04-03T05:53:47.745Z,103218.75
2023-04-03T05:58:38.704Z,103213.63
2023-04-03T06:03:30.463Z,103209.75
2023-04-03T06:08:25.286Z,103218.25
2023-04-03T06:13:17.212Z,103214.72
2023-04-03T06:18:08.954Z,103216.69
2023-04-03T06:23:00.670Z,103215.00
2023-04-03T06:27:56.979Z,103229.19
2023-04-03T06:32:47.342Z,103229.38
2023-04-03T06:37:37.985Z,103230.50
2023-04-03T06:42:28.950Z,103223.31
2023-04-03T06:47:30.669Z,103232.19
2023-04-03T06:52:21.317Z,103237.94
2023-04-03T06:57:11.782Z,103238.28
2023-04-03T07:02:03.097Z,103243.63
2023-04-03T07:06:56.428Z,103246.75
2023-04-03T07:11:46.750Z,103240.13
2023-04-03T07:16:38.287Z,103244.47
2023-04-03T07:21:30.986Z,103255.28
2023-04-03T07:26:27.040Z,103256.97
2023-04-03T07:31:18.562Z,103266.34
2023-04-03T07:36:09.653Z,103279.22
2023-04-03T07:41:00.901Z,103262.63
2023-04-03T07:45:55.725Z,103268.31
2023-04-03T07:50:46.921Z,103281.16
2023-04-03T07:55:42.050Z,103277.84
2023-04-03T08:00:35.352Z,103277.66
2023-04-03T08:05:28.755Z,103280.69
2023-04-03T08:10:20.989Z,103288.31
2023-04-03T08:15:12.645Z,103288.09
2023-04-03T08:20:06.216Z,103292.06
2023-04-03T08:25:00.129Z,103296.59
2023-04-03T08:29:55.037Z,103307.94
2023-04-03T08:34:45.729Z,103304.88
2023-04-03T08:39:40.294Z,103308.31
2023-04-03T08:44:43.891Z,103305.28
2023-04-03T08:49:41.584Z,103319.50
2023-04-03T08:54:38.629Z,103309.44
2023-04-03T08:59:36.483Z,103304.59
2023-04-03T09:04:36.384Z,103295.72
2023-04-03T09:09:35.485Z,103302.03
2023-04-03T09:14:30.617Z,103305.81
2023-04-03T09:19:25.452Z,103298.47
2023-04-03T09:24:21.333Z,103316.44
2023-04-03T09:29:14.522Z,103301.28
2023-04-03T09:34:08.195Z,103290.19
2023-04-03T09:39:07.408Z,103296.41
2023-04-03T09:44:02.917Z,103275.03
2023-04-03T09:49:07.357Z,103286.84
2023-04-03T09:54:01.295Z,103279.25
2023-04-03T09:58:53.059Z,103276.59
2023-04-03T10:03:48.120Z,103272.03
2023-04-03T10:08:39.236Z,103262.75
2023-04-03T10:13:29.811Z,103254.97
2023-04-03T10:18:32.099Z,103262.16
2023-04-03T10:23:32.656Z,103259.19
2023-04-03T10:28:29.543Z,103248.56
2023-04-03T10:33:28.098Z,103241.59
2023-04-03T10:38:29.495Z,103247.50
2023-04-03T10:43:22.606Z,103233.06
2023-04-03T10:48:18.613Z,103232.09
2023-04-03T10:53:12.481Z,103223.41
2023-04-03T10:58:06.179Z,103221.78
2023-04-03T11:02:59.852Z,103220.00
2023-04-03T11:07:53.359Z,103214.22
2023-04-03T11:12:48.058Z,103213.75
2023-04-03T11:17:48.057Z,103226.09
2023-04-03T11:22:42.439Z,103220.88
2023-04-03T11:27:35.654Z,103216.41
2023-04-03T11:32:34.343Z,103211.38
2023-04-03T11:37:36.820Z,103215.28
2023-04-03T11:42:35.523Z,103196.06
2023-04-03T11:47:41.048Z,103185.44
2023-04-03T11:52:48.154Z,103184.47
2023-04-03T11:57:51.529Z,103173.88
2023-04-03T12:02:53.963Z,103166.88
2023-04-03T12:07:45.686Z,103166.03
2023-04-03T12:12:39.390Z,103158.88
2023-04-03T12:17:37.580Z,103155.56
2023-04-03T12:22:31.550Z,103157.28
2023-04-03T12:27:49.193Z,103163.41
2023-04-03T12:32:48.326Z,103134.38
2023-04-03T12:37:57.551Z,103139.84
2023-04-03T12:43:02.970Z,103138.09
2023-04-03T12:47:58.521Z,103137.25
2023-04-03T12:52:52.518Z,103131.28
2023-04-03T12:57:43.723Z,103126.94
2023-04-03T13:02:35.752Z,103120.03
2023-04-03T13:07:36.095Z,103117.09
2023-04-03T13:12:31.827Z,103113.94
2023-04-03T13:17:22.893Z,103106.50
2023-04-03T13:22:29.385Z,103103.06
2023-04-03T13:27:24.396Z,103094.88
2023-04-03T13:32:22.237Z,103093.53
2023-04-03T13:37:24.670Z,103083.66
2023-04-03T13:42:20.558Z,103092.19
2023-04-03T13:47:27.599Z,103094.44
2023-04-03T13:52:29.793Z,103092.69
2023-04-03T13:57:25.896Z,103084.75
2023-04-03T14:02:23.266Z,103083.56
2023-04-03T14:07:17.607Z,103082.78
2023-04-03T14:12:17.999Z,103076.72
2023-04-03T14:17:25.031Z,103072.81
2023-04-03T14:22:23.991Z,103068.19
2023-04-03T14:27:19.535Z,103059.81
2023-04-03T14:36:22.155Z,103048.22
2023-04-03T14:41:17.312Z,103051.03
2023-04-03T14:46:08.808Z,103050.03
2023-04-03T14:51:05.592Z,103050.16
2023-04-03T14:55:59.400Z,103030.44
2023-04-03T15:00:51.350Z,103036.50
2023-04-03T15:05:41.838Z,103035.78
2023-04-03T15:10:34.474Z,103030.31
2023-04-03T15:15:28.107Z,103031.56
2023-04-03T15:20:20.952Z,103035.41
2023-04-03T15:25:16.707Z,103035.59
2023-04-03T15:30:07.955Z,103030.53
2023-04-03T15:35:01.569Z,103026.00
2023-04-03T15:39:52.545Z,103028.44
2023-04-03T15:44:43.206Z,103036.06
2023-04-03T15:49:34.407Z,103031.28
2023-04-03T15:54:30.928Z,103022.84
2023-04-03T15:59:21.451Z,103029.34
2023-04-03T16:04:13.732Z,103012.91
2023-04-03T16:09:08.672Z,103028.00
2023-04-03T16:14:04.735Z,103017.19
2023-04-03T16:18:55.523Z,103020.44
2023-04-03T16:23:48.291Z,103025.88
2023-04-03T16:28:39.686Z,103027.91
2023-04-03T16:33:38.148Z,103016.81
2023-04-03T16:38:36.368Z,103026.97
2023-04-03T16:43:28.573Z,103026.25
2023-04-03T16:48:19.504Z,103031.28
2023-04-03T16:53:13.004Z,103027.59
2023-04-03T16:58:05.737Z,103025.06
2023-04-03T17:02:56.789Z,103028.41
2023-04-03T17:07:48.150Z,103030.22
2023-04-03T17:12:42.341Z,103024.22
2023-04-03T17:17:33.443Z,103024.66
2023-04-03T17:22:27.724Z,103016.03
2023-04-03T17:27:19.788Z,103018.50
2023-04-03T17:32:13.692Z,103026.50
2023-04-03T17:37:04.601Z,103020.50
2023-04-03T17:41:55.866Z,103021.78
2023-04-03T17:46:47.521Z,103021.44
2023-04-03T17:51:42.499Z,103021.81
2023-04-03T17:56:33.068Z,103032.94
2023-04-03T18:01:25.832Z,103030.75
2023-04-03T18:06:18.638Z,103019.63
2023-04-03T18:11:14.333Z,103033.63
2023-04-03T18:16:05.462Z,103041.31
2023-04-03T18:20:56.821Z,103042.75
2023-04-03T18:25:47.726Z,103040.59
2023-04-03T18:30:42.045Z,103048.81
2023-04-03T18:35:36.035Z,103048.63
2023-04-03T18:40:29.068Z,103056.16
2023-04-03T18:45:21.454Z,103057.66
2023-04-03T18:50:18.680Z,103050.16
2023-04-03T18:55:12.044Z,103052.16
2023-04-03T19:00:05.431Z,103053.28
2023-04-03T19:04:57.392Z,103059.88
2023-04-03T19:09:52.802Z,103065.91
2023-04-03T19:14:43.816Z,103060.59
2023-04-03T19:19:34.652Z,103066.75
2023-04-03T19:24:28.135Z,103065.75
2023-04-03T19:29:21.648Z,103080.13
2023-04-03T19:34:12.354Z,103076.97
2023-04-03T19:39:03.433Z,103081.78
2023-04-03T19:43:55.100Z,103085.06
2023-04-03T19:48:52.841Z,103075.13
2023-04-03T19:53:43.748Z,103073.19
2023-04-03T19:58:36.043Z,103068.06
2023-04-03T20:03:26.983Z,103063.31
2023-04-03T20:08:22.675Z,103062.00
2023-04-03T20:13:16.209Z,103067.69
2023-04-03T20:18:07.540Z,103072.44
2023-04-03T20:22:59.067Z,103077.22
2023-04-03T20:27:54.764Z,103083.91
2023-04-03T20:32:45.340Z,103081.88
2023-04-03T20:37:37.339Z,103094.84
2023-04-03T20:42:28.369Z,103096.38
2023-04-03T20:47:25.690Z,103098.50
2023-04-03T20:52:16.814Z,103094.13
2023-04-03T20:57:08.102Z,103086.88
2023-04-03T21:02:01.403Z,103085.09
2023-04-03T21:07:13.073Z,103087.28
2023-04-03T21:12:18.488Z,103082.25
2023-04-03T21:17:11.883Z,103087.53
2023-04-03T21:22:05.980Z,103072.75
2023-04-03T21:26:57.061Z,103066.88
2023-04-03T21:31:53.063Z,103062.47
2023-04-03T21:36:44.330Z,103069.97
2023-04-03T21:41:37.915Z,103077.00
2023-04-03T21:46:29.445Z,103080.19
2023-04-03T21:51:20.753Z,103073.88
2023-04-03T21:56:12.106Z,103077.34
2023-04-03T22:01:12.260Z,103072.00
2023-04-03T22:06:03.020Z,103070.84
2023-04-03T22:11:02.828Z,103072.38
2023-04-03T22:15:54.492Z,103077.25
2023-04-03T22:20:49.964Z,103069.81
2023-04-03T22:25:41.155Z,103070.00
2023-04-03T22:30:32.028Z,103069.91
2023-04-03T22:35:27.509Z,103068.00
2023-04-03T22:40:21.767Z,103068.78
2023-04-03T22:45:12.767Z,103058.13
2023-04-03T22:50:04.534Z,103057.19
2023-04-03T22:54:56.668Z,103050.38
2023-04-03T22:59:53.902Z,103044.88
2023-04-03T23:04:45.473Z,103038.03
2023-04-03T23:09:36.306Z,103031.31
2023-04-03T23:14:27.967Z,103028.75
2023-04-03T23:19:22.590Z,103027.41
2023-04-03T23:24:13.448Z,103041.13
2023-04-03T23:29:04.968Z,103035.81
2023-04-03T23:33:55.778Z,103037.44
2023-04-03T23:38:48.991Z,103035.16
2023-04-03T23:43:42.194Z,103036.78
2023-04-03T23:48:32.910Z,103040.09
2023-04-03T23:53:23.351Z,103055.19
2023-04-03T23:58:16.895Z,103051.22
